Time;durP1;ratioP1;P1;durP2;ratioP2;P2;SDS_P1;SDS_P2;PMS_P1;PMS_P2;Temp;Humidity;BMP_temperature;BMP_pressure;BME280_temperature;BME280_humidity;BME280_pressure;Samples;Min_cycle;Max_cycle;Signal;HPM_P1;HPM_P2
2023/04/09 00:02:21;;;;;;;9.10;5.30;;;6.90;99.90;;;7.42;100.00;98884.50;4980731;28;20465;-75
2023/04/09 00:04:54;;;;;;;8.00;5.57;;;6.80;99.90;;;7.41;100.00;98877.66;4979299;28;20484;-75
2023/04/09 00:07:25;;;;;;;7.50;5.00;;;6.70;99.90;;;7.36;100.00;98872.06;4981075;28;20472;-75
2023/04/09 00:09:55;;;;;;;7.27;4.70;;;6.80;99.90;;;7.32;100.00;98881.97;4982013;28;20474;-75
2023/04/09 00:12:25;;;;;;;7.50;5.03;;;6.70;99.90;;;7.27;100.00;98886.78;4980982;28;20886;-75
2023/04/09 00:14:55;;;;;;;10.43;4.70;;;6.70;99.90;;;7.25;100.00;98878.31;4982899;28;20481;-75
2023/04/09 00:17:25;;;;;;;6.27;4.60;;;6.70;99.90;;;7.20;100.00;98883.13;4980740;28;21154;-75
2023/04/09 00:19:57;;;;;;;8.50;4.10;;;6.60;99.90;;;7.20;100.00;98888.31;4981749;28;20503;-75
2023/04/09 00:22:27;;;;;;;6.10;4.00;;;6.60;99.90;;;7.17;100.00;98880.81;4984106;28;20476;-75
2023/04/09 00:24:57;;;;;;;7.33;4.73;;;6.50;99.90;;;7.16;100.00;98876.56;4981957;28;20533;-75
2023/04/09 00:27:27;;;;;;;7.80;4.40;;;6.50;99.90;;;7.12;100.00;98883.00;4980742;28;20468;-75
2023/04/09 00:29:56;;;;;;;7.90;5.07;;;6.50;99.90;;;7.10;100.00;98879.75;4979616;28;20496;-75
2023/04/09 00:32:27;;;;;;;6.57;4.80;;;6.50;99.90;;;7.07;100.00;98875.66;4983354;28;20473;-75
2023/04/09 00:34:58;;;;;;;6.03;4.53;;;6.50;99.90;;;6.99;100.00;98883.34;4979283;28;21138;-75
2023/04/09 00:37:27;;;;;;;10.70;5.00;;;6.40;99.90;;;7.00;100.00;98881.59;4978590;28;20462;-75
2023/04/09 00:39:56;;;;;;;6.20;4.60;;;6.30;99.90;;;6.97;100.00;98879.28;4978715;28;20492;-75
2023/04/09 00:42:26;;;;;;;7.90;4.63;;;6.40;99.90;;;6.94;100.00;98885.56;4976991;28;20456;-75
2023/04/09 00:44:56;;;;;;;5.40;3.97;;;6.40;99.90;;;6.93;100.00;98883.94;4976541;28;20561;-75
2023/04/09 00:47:26;;;;;;;6.93;4.60;;;6.30;99.90;;;6.89;100.00;98881.75;4976872;28;20529;-74
2023/04/09 00:49:57;;;;;;;5.13;4.13;;;6.30;99.90;;;6.79;100.00;98874.00;4982610;28;20470;-75
2023/04/09 00:52:29;;;;;;;6.97;5.37;;;6.30;99.90;;;6.83;100.00;98877.13;4975363;28;20460;-75
2023/04/09 00:55:01;;;;;;;14.10;5.13;;;6.20;99.90;;;6.80;100.00;98878.25;4978752;28;20590;-75
2023/04/09 00:57:30;;;;;;;7.57;4.60;;;6.20;99.90;;;6.78;100.00;98879.34;4979349;28;20475;-75
2023/04/09 01:00:00;;;;;;;6.57;4.70;;;6.20;99.90;;;6.79;100.00;98886.19;4978322;28;21212;-75
2023/04/09 01:02:29;;;;;;;8.70;4.50;;;6.20;99.90;;;6.78;100.00;98879.34;4980857;28;20476;-75
2023/04/09 01:05:00;;;;;;;8.63;4.70;;;6.20;99.90;;;6.78;100.00;98885.34;4982288;28;21144;-75
2023/04/09 01:07:53;;;;;;;6.70;4.53;;;6.20;99.90;;;6.76;100.00;98876.88;4979747;28;20567;-75
2023/04/09 01:10:29;;;;;;;4.70;4.00;;;6.20;99.90;;;6.76;100.00;98881.25;4980458;28;20464;-74
2023/04/09 01:13:11;;;;;;;5.70;4.30;;;6.20;99.90;;;6.79;100.00;98880.97;4981823;28;20901;-75
2023/04/09 01:15:47;;;;;;;8.23;4.77;;;6.20;99.90;;;6.77;100.00;98878.50;4980961;28;20452;-75
2023/04/09 01:18:26;;;;;;;6.70;4.57;;;6.20;99.90;;;6.73;100.00;98881.56;4982364;28;21034;-75
2023/04/09 01:21:03;;;;;;;6.07;3.97;;;6.20;99.90;;;6.72;100.00;98879.91;4984008;28;21036;-75
2023/04/09 01:23:58;;;;;;;7.27;4.93;;;6.20;99.90;;;6.71;100.00;98876.47;4980180;28;21049;-75
2023/04/09 01:26:53;;;;;;;8.00;4.80;;;6.20;99.90;;;6.73;100.00;98876.34;4977794;28;20544;-75
2023/04/09 01:29:28;;;;;;;6.13;4.70;;;6.20;99.90;;;6.71;100.00;98879.09;4979693;28;20553;-75
2023/04/09 01:32:00;;;;;;;11.07;4.70;;;6.10;99.90;;;6.69;100.00;98875.00;4979036;28;20507;-75
2023/04/09 01:34:31;;;;;;;7.07;4.20;;;6.10;99.90;;;6.70;100.00;98872.25;4976722;28;20465;-75
2023/04/09 01:37:03;;;;;;;9.70;5.20;;;6.10;99.90;;;6.72;100.00;98874.72;4977609;28;20479;-75
2023/04/09 01:39:33;;;;;;;8.20;5.23;;;6.10;99.90;;;6.63;100.00;98870.38;4977363;28;20496;-75
2023/04/09 01:42:03;;;;;;;8.03;5.00;;;6.10;99.90;;;6.62;100.00;98879.13;4973798;28;20481;-75
2023/04/09 01:44:37;;;;;;;11.70;4.70;;;6.10;99.90;;;6.63;100.00;98878.16;4976696;28;20488;-75
2023/04/09 01:47:09;;;;;;;9.10;5.47;;;6.00;99.90;;;6.58;100.00;98874.22;4977271;28;20456;-76
2023/04/09 01:49:42;;;;;;;6.60;5.20;;;6.00;99.90;;;6.49;100.00;98880.22;4975401;28;20476;-75
2023/04/09 01:52:12;;;;;;;7.10;4.67;;;6.00;99.90;;;6.46;100.00;98875.31;4976088;28;20479;-75
2023/04/09 01:54:42;;;;;;;8.40;5.00;;;5.90;99.90;;;6.45;100.00;98876.31;4975834;28;21194;-75
2023/04/09 01:57:12;;;;;;;7.50;4.93;;;5.90;99.90;;;6.40;100.00;98875.06;4977838;28;20554;-75
2023/04/09 01:59:43;;;;;;;4.87;4.00;;;5.90;99.90;;;6.41;100.00;98872.34;4977991;28;20504;-75
2023/04/09 02:02:21;;;;;;;9.13;5.10;;;5.80;99.90;;;6.44;100.00;98872.06;4979636;28;20833;-75
2023/04/09 02:04:57;;;;;;;8.17;4.27;;;5.80;99.90;;;6.39;100.00;98878.63;4979103;28;20567;-75
2023/04/09 02:07:37;;;;;;;6.40;4.57;;;5.80;99.90;;;6.33;100.00;98874.00;4977958;28;20519;-75
2023/04/09 02:10:11;;;;;;;8.77;5.27;;;5.70;99.90;;;6.28;100.00;98876.19;4979455;28;21083;-75
2023/04/09 02:12:49;;;;;;;7.00;4.73;;;5.70;99.90;;;6.26;100.00;98875.50;4980101;28;20461;-75
2023/04/09 02:15:23;;;;;;;6.20;4.63;;;5.70;99.90;;;6.31;100.00;98881.13;4976494;28;20973;-75
2023/04/09 02:17:53;;;;;;;6.67;4.53;;;5.70;99.90;;;6.28;100.00;98873.59;4978384;28;20482;-75
2023/04/09 02:20:23;;;;;;;9.40;4.40;;;5.60;99.90;;;6.26;100.00;98884.13;4978467;28;20590;-75
2023/04/09 02:22:53;;;;;;;6.50;4.50;;;5.60;99.90;;;6.30;100.00;98895.03;4979221;28;20555;-75
2023/04/09 02:25:25;;;;;;;5.40;3.80;;;5.60;99.90;;;6.27;100.00;98890.97;4977763;28;20469;-75
2023/04/09 02:27:55;;;;;;;7.03;4.50;;;5.60;99.90;;;6.29;100.00;98883.84;4976381;28;20498;-75
2023/04/09 02:30:27;;;;;;;16.73;5.80;;;5.60;99.90;;;6.21;100.00;98891.53;4980626;28;20467;-75
2023/04/09 02:32:56;;;;;;;5.00;4.00;;;5.60;99.90;;;6.12;100.00;98886.31;4976449;28;20468;-75
2023/04/09 02:35:25;;;;;;;6.87;4.17;;;5.60;99.90;;;6.12;100.00;98876.75;4975811;28;21049;-75
2023/04/09 02:37:56;;;;;;;7.07;3.97;;;5.60;99.90;;;6.06;100.00;98887.69;4978815;28;20528;-75
2023/04/09 02:40:24;;;;;;;5.30;4.10;;;5.60;99.90;;;6.07;100.00;98884.94;4979377;28;20491;-75
2023/04/09 02:42:54;;;;;;;9.17;4.47;;;5.50;99.90;;;6.06;100.00;98887.69;4977162;28;20965;-75
2023/04/09 02:45:25;;;;;;;5.10;4.07;;;5.50;99.90;;;6.03;100.00;98881.00;4978439;28;20467;-75
2023/04/09 02:47:54;;;;;;;5.30;4.20;;;5.50;99.90;;;6.05;100.00;98880.84;4978169;28;20558;-75
2023/04/09 02:50:23;;;;;;;6.50;4.87;;;5.50;99.90;;;6.04;100.00;98887.00;4976759;28;20475;-75
2023/04/09 02:52:55;;;;;;;8.00;4.90;;;5.50;99.90;;;6.05;100.00;98880.84;4977739;28;20568;-75
2023/04/09 02:55:26;;;;;;;6.17;4.17;;;5.40;99.90;;;6.03;100.00;98877.59;4980248;28;20462;-75
2023/04/09 02:57:56;;;;;;;7.07;5.43;;;5.40;99.90;;;6.03;100.00;98883.59;4976816;28;21018;-75
2023/04/09 03:00:29;;;;;;;8.17;4.30;;;5.40;99.90;;;6.06;100.00;98885.09;4979743;28;20524;-75
2023/04/09 03:02:58;;;;;;;6.20;4.63;;;5.40;99.90;;;6.08;100.00;98875.38;4976132;28;20959;-75
2023/04/09 03:05:29;;;;;;;6.13;4.60;;;5.40;99.90;;;6.05;100.00;98880.84;4980234;28;20484;-74
2023/04/09 03:07:59;;;;;;;10.77;4.53;;;5.40;99.90;;;5.97;100.00;98872.97;4976875;28;20478;-75
2023/04/09 03:10:29;;;;;;;5.63;4.00;;;5.40;99.90;;;5.96;100.00;98869.53;4978242;28;20472;-75
2023/04/09 03:12:58;;;;;;;6.20;4.07;;;5.40;99.90;;;5.92;100.00;98869.94;4975799;28;20475;-74
2023/04/09 03:15:29;;;;;;;6.13;4.13;;;5.30;99.90;;;5.89;100.00;98862.44;4974862;28;20468;-75
2023/04/09 03:18:00;;;;;;;6.63;5.03;;;5.30;99.90;;;5.79;100.00;98871.97;4978060;28;20507;-74
2023/04/09 03:20:29;;;;;;;7.57;4.93;;;5.30;99.90;;;5.63;100.00;98869.06;4976814;28;20495;-75
2023/04/09 03:22:58;;;;;;;7.70;4.60;;;5.20;99.90;;;5.69;100.00;98864.19;4974975;28;20471;-75
2023/04/09 03:25:28;;;;;;;5.93;4.03;;;5.10;99.90;;;5.70;100.00;98862.38;4974532;28;20483;-75
2023/04/09 03:27:57;;;;;;;5.00;4.00;;;5.10;99.90;;;5.55;100.00;98857.59;4974857;28;20479;-75
2023/04/09 03:30:28;;;;;;;6.33;4.07;;;5.10;99.90;;;5.51;100.00;98858.84;4976326;28;20499;-75
2023/04/09 03:32:58;;;;;;;6.60;4.17;;;5.10;99.90;;;5.58;100.00;98852.16;4976948;28;20527;-75
2023/04/09 03:35:29;;;;;;;4.93;3.90;;;5.00;99.90;;;5.59;100.00;98861.56;4975202;28;20475;-75
2023/04/09 03:37:59;;;;;;;6.67;4.20;;;5.00;99.90;;;5.58;100.00;98854.75;4978917;28;20520;-76
2023/04/09 03:40:30;;;;;;;5.57;3.77;;;4.90;99.90;;;5.51;100.00;98856.25;4977933;28;20946;-75
2023/04/09 03:43:00;;;;;;;6.13;4.00;;;4.90;99.90;;;5.50;100.00;98854.59;4977860;28;20557;-75
2023/04/09 03:45:32;;;;;;;11.57;4.43;;;4.90;99.90;;;5.45;100.00;98851.59;4977155;28;20558;-75
2023/04/09 03:48:02;;;;;;;6.20;4.10;;;4.90;99.90;;;5.47;100.00;98849.69;4979710;28;21567;-75
2023/04/09 03:50:37;;;;;;;6.43;3.87;;;4.80;99.90;;;5.34;100.00;98846.53;4977457;28;20491;-75
2023/04/09 03:53:07;;;;;;;4.90;4.17;;;4.80;99.90;;;5.30;100.00;98842.56;4976209;28;21087;-75
2023/04/09 03:55:37;;;;;;;7.20;4.50;;;4.80;99.90;;;5.33;100.00;98850.06;4975097;28;20532;-75
2023/04/09 03:58:07;;;;;;;9.23;4.17;;;4.70;99.90;;;5.30;100.00;98852.94;4978953;28;20470;-75
2023/04/09 04:00:39;;;;;;;6.80;4.30;;;4.70;99.90;;;5.29;100.00;98840.91;4979572;28;20468;-75
2023/04/09 04:03:13;;;;;;;5.37;3.80;;;4.70;99.90;;;5.32;100.00;98851.03;4973132;28;20480;-75
2023/04/09 04:05:43;;;;;;;6.60;4.53;;;4.70;99.90;;;5.31;100.00;98851.19;4975818;28;20574;-75
2023/04/09 04:08:12;;;;;;;6.60;4.23;;;4.60;99.90;;;5.30;100.00;98852.94;4976534;28;20470;-75
2023/04/09 04:10:42;;;;;;;5.63;3.50;;;4.70;99.90;;;5.30;100.00;98857.31;4977573;28;20471;-75
2023/04/09 04:13:10;;;;;;;7.07;4.33;;;4.60;99.90;;;5.28;100.00;98854.00;4975059;28;20459;-75
2023/04/09 04:15:42;;;;;;;7.07;3.97;;;4.60;99.90;;;5.26;100.00;98851.56;4976042;28;20470;-75
2023/04/09 04:18:11;;;;;;;5.77;4.07;;;4.60;99.90;;;5.18;100.00;98866.13;4973386;28;21050;-75
2023/04/09 04:20:42;;;;;;;7.30;3.67;;;4.60;99.90;;;5.16;100.00;98858.50;4976396;28;20463;-75
2023/04/09 04:23:12;;;;;;;6.37;4.13;;;4.50;99.90;;;5.14;100.00;98865.56;4973759;28;20468;-74
2023/04/09 04:25:42;;;;;;;4.93;3.70;;;4.50;99.90;;;5.12;100.00;98859.72;4974202;28;20848;-75
2023/04/09 04:28:13;;;;;;;5.23;3.50;;;4.40;99.90;;;5.04;100.00;98862.97;4973213;28;20509;-75
2023/04/09 04:30:44;;;;;;;6.33;3.80;;;4.50;99.90;;;5.04;100.00;98867.31;4971891;28;20508;-75
2023/04/09 04:33:14;;;;;;;5.47;3.93;;;4.40;99.90;;;5.01;100.00;98857.22;4974635;28;20492;-75
2023/04/09 04:35:43;;;;;;;4.93;3.90;;;4.40;99.90;;;4.98;100.00;98862.66;4980422;28;20826;-75
2023/04/09 04:38:12;;;;;;;7.37;4.03;;;4.40;99.90;;;4.97;100.00;98866.22;4979951;28;20473;-75
2023/04/09 04:40:42;;;;;;;11.87;4.70;;;4.30;99.90;;;4.95;100.00;98873.31;4978811;28;20457;-75
2023/04/09 04:43:12;;;;;;;7.03;4.50;;;4.30;99.90;;;4.90;100.00;98872.88;4978602;28;20994;-75
2023/04/09 04:45:43;;;;;;;5.17;3.57;;;4.30;99.90;;;4.89;100.00;98869.47;4983412;28;20550;-75
2023/04/09 04:48:13;;;;;;;5.40;3.93;;;4.30;99.90;;;4.85;100.00;98868.09;4981006;28;20459;-75
2023/04/09 04:50:43;;;;;;;6.70;3.70;;;4.30;99.90;;;4.82;100.00;98880.50;4979203;28;20470;-75
2023/04/09 04:53:12;;;;;;;5.40;3.93;;;4.20;99.90;;;4.87;100.00;98870.53;4981692;28;20549;-75
2023/04/09 04:55:42;;;;;;;5.60;3.87;;;4.20;99.90;;;4.80;100.00;98875.44;4981344;28;20471;-75
2023/04/09 04:58:11;;;;;;;5.00;3.50;;;4.20;99.90;;;4.67;100.00;98868.81;4979029;28;20481;-75
2023/04/09 05:00:40;;;;;;;5.47;4.13;;;4.20;99.90;;;4.60;100.00;98872.88;4978865;28;20572;-72
2023/04/09 05:03:11;;;;;;;8.77;4.60;;;4.10;99.90;;;4.64;100.00;98875.09;4975909;28;20509;-75
2023/04/09 05:05:41;;;;;;;7.87;5.00;;;4.10;99.90;;;4.63;100.00;98868.25;4978801;28;20488;-74
2023/04/09 05:08:11;;;;;;;5.93;4.40;;;4.00;99.90;;;4.53;100.00;98875.16;4976037;28;20553;-75
2023/04/09 05:10:42;;;;;;;6.10;4.03;;;4.10;99.90;;;4.57;100.00;98871.38;4977129;28;20479;-73
2023/04/09 05:13:13;;;;;;;7.57;4.53;;;4.00;99.90;;;4.61;100.00;98871.94;4975753;28;20471;-75
2023/04/09 05:15:42;;;;;;;5.50;3.87;;;4.00;99.90;;;4.62;100.00;98879.56;4971982;28;20469;-74
2023/04/09 05:18:14;;;;;;;8.80;4.37;;;4.00;99.90;;;4.61;100.00;98875.34;4973794;28;20459;-74
2023/04/09 05:20:43;;;;;;;5.60;4.17;;;4.00;99.90;;;4.62;100.00;98876.97;4977856;28;20567;-74
2023/04/09 05:23:12;;;;;;;7.60;3.77;;;3.90;99.90;;;4.62;100.00;98871.78;4979039;28;20524;-74
2023/04/09 05:25:41;;;;;;;7.17;4.00;;;4.00;99.90;;;4.60;100.00;98873.69;4979434;28;20464;-74
2023/04/09 05:28:13;;;;;;;5.90;3.93;;;4.00;99.90;;;4.62;100.00;98876.19;4979536;28;20480;-74
2023/04/09 05:30:42;;;;;;;8.33;4.77;;;4.00;99.90;;;4.65;100.00;98886.28;4978960;28;20859;-74
2023/04/09 05:33:13;;;;;;;4.47;3.97;;;4.00;99.90;;;4.61;100.00;98880.53;4976054;28;20466;-74
2023/04/09 05:35:43;;;;;;;9.60;4.70;;;4.00;99.90;;;4.57;100.00;98881.72;4976958;28;20480;-75
2023/04/09 05:38:13;;;;;;;6.73;3.90;;;4.00;99.90;;;4.55;100.00;98883.63;4977792;28;21014;-74
2023/04/09 05:40:44;;;;;;;16.30;4.77;;;4.00;99.90;;;4.53;100.00;98883.75;4977487;28;20500;-74
2023/04/09 05:43:17;;;;;;;6.60;4.20;;;4.00;99.90;;;4.51;100.00;98890.81;4977086;28;21025;-74
2023/04/09 05:45:48;;;;;;;6.97;4.20;;;4.00;99.90;;;4.53;100.00;98894.13;4977310;28;20464;-74
2023/04/09 05:48:19;;;;;;;7.70;4.53;;;4.00;99.90;;;4.52;100.00;98889.88;4975900;28;21025;-74
2023/04/09 05:50:51;;;;;;;6.33;4.37;;;4.00;99.90;;;4.53;100.00;98891.53;4978364;28;20466;-74
2023/04/09 05:53:24;;;;;;;7.00;4.40;;;4.00;99.90;;;4.53;100.00;98888.13;4975623;28;20485;-73
2023/04/09 05:55:54;;;;;;;10.77;4.90;;;4.00;99.90;;;4.53;100.00;98888.94;4978669;28;20557;-74
2023/04/09 05:58:24;;;;;;;8.70;4.97;;;4.00;99.90;;;4.56;100.00;98898.22;4978038;28;20857;-74
2023/04/09 06:00:54;;;;;;;8.63;5.20;;;4.00;99.90;;;4.53;100.00;98894.13;4975980;28;20464;-75
2023/04/09 06:03:25;;;;;;;13.77;4.60;;;4.10;99.90;;;4.52;100.00;98889.88;4979015;28;20499;-74
2023/04/09 06:05:54;;;;;;;8.33;4.77;;;4.00;99.90;;;4.56;100.00;98888.69;4978829;28;20527;-74
2023/04/09 06:08:23;;;;;;;8.63;4.20;;;4.00;99.90;;;4.55;100.00;98892.22;4976980;28;20843;-74
2023/04/09 06:10:52;;;;;;;7.10;4.33;;;4.10;99.90;;;4.57;100.00;98889.50;4977874;28;20823;-74
2023/04/09 06:13:22;;;;;;;5.70;4.03;;;4.10;99.90;;;4.59;100.00;98892.78;4976830;28;20473;-74
2023/04/09 06:15:52;;;;;;;5.60;4.03;;;4.10;99.90;;;4.64;100.00;98892.41;4976923;28;20464;-74
2023/04/09 06:18:21;;;;;;;10.10;5.27;;;4.10;99.90;;;4.69;100.00;98898.00;4975098;28;20931;-74
2023/04/09 06:21:03;;;;;;;6.40;4.20;;;4.10;99.90;;;4.68;100.00;98891.19;4975819;28;22235;-74
2023/04/09 06:23:33;;;;;;;7.10;4.63;;;4.10;99.90;;;4.70;100.00;98889.28;4979740;28;20490;-74
2023/04/09 06:26:02;;;;;;;6.40;3.93;;;4.20;99.90;;;4.72;100.00;98890.00;4975836;28;20470;-74
2023/04/09 06:28:32;;;;;;;6.10;4.73;;;4.20;99.90;;;4.76;100.00;98899.13;4975835;28;20494;-74
2023/04/09 06:31:03;;;;;;;7.30;4.57;;;4.20;99.90;;;4.77;100.00;98890.41;4973928;28;20492;-74
2023/04/09 06:33:32;;;;;;;7.30;5.00;;;4.20;99.90;;;4.81;100.00;98895.22;4975658;28;20519;-74
2023/04/09 06:36:05;;;;;;;5.30;4.67;;;4.20;99.90;;;4.81;100.00;98900.41;4976633;28;20469;-74
2023/04/09 06:38:34;;;;;;;6.53;4.47;;;4.30;99.90;;;4.88;100.00;98898.09;4981404;28;20486;-74
2023/04/09 06:41:07;;;;;;;6.20;4.07;;;4.30;99.90;;;4.94;100.00;98892.38;4981220;28;20556;-74
2023/04/09 06:43:37;;;;;;;10.43;4.83;;;4.30;99.90;;;4.98;100.00;98899.78;4977629;28;20483;-74
2023/04/09 06:46:07;;;;;;;7.23;3.90;;;4.40;99.90;;;5.03;100.00;98902.00;4978053;28;20457;-74
2023/04/09 06:48:36;;;;;;;10.23;5.20;;;4.40;99.90;;;5.09;100.00;98901.47;4977284;28;20461;-74
2023/04/09 06:51:08;;;;;;;8.47;5.07;;;4.40;99.90;;;5.15;100.00;98907.88;4978883;28;20477;-74
2023/04/09 06:53:38;;;;;;;5.80;4.03;;;4.50;99.90;;;5.20;100.00;98906.56;4976739;28;20468;-74
2023/04/09 06:56:10;;;;;;;7.27;5.10;;;4.50;99.90;;;5.26;100.00;98898.22;4976540;28;20470;-72
2023/04/09 06:58:40;;;;;;;118.10;36.93;;;4.60;99.90;;;5.32;100.00;98902.88;4974506;28;20463;-74
2023/04/09 07:01:10;;;;;;;14.03;6.50;;;4.60;99.90;;;5.37;100.00;98902.50;4973700;28;20467;-74
2023/04/09 07:03:40;;;;;;;9.20;4.90;;;4.60;99.90;;;5.42;100.00;98900.31;4974041;28;20989;-74
2023/04/09 07:06:12;;;;;;;7.90;5.67;;;4.70;99.90;;;5.46;100.00;98899.91;4975317;28;20528;-75
2023/04/09 07:08:43;;;;;;;9.63;5.70;;;4.70;99.90;;;5.51;100.00;98900.34;4975750;28;20475;-75
2023/04/09 07:11:12;;;;;;;8.70;5.37;;;4.80;99.90;;;5.54;100.00;98907.03;4974533;28;20467;-74
2023/04/09 07:13:41;;;;;;;7.40;5.10;;;4.90;99.90;;;5.56;100.00;98900.75;4977390;28;20524;-74
2023/04/09 07:16:10;;;;;;;8.40;4.70;;;5.00;99.90;;;5.63;100.00;98910.56;4981520;28;20591;-74
2023/04/09 07:18:40;;;;;;;9.30;4.77;;;5.00;99.90;;;5.69;100.00;98903.09;4972739;28;20473;-74
2023/04/09 07:21:09;;;;;;;8.00;4.57;;;5.10;99.90;;;5.76;100.00;98905.97;4975958;28;20464;-74
2023/04/09 07:23:39;;;;;;;7.63;4.90;;;5.10;99.90;;;5.82;100.00;98900.22;4974114;28;20549;-74
2023/04/09 07:26:10;;;;;;;8.07;5.63;;;5.10;99.90;;;5.88;100.00;98904.91;4973776;28;20516;-74
2023/04/09 07:28:41;;;;;;;9.90;6.00;;;5.20;99.90;;;5.95;100.00;98900.81;4975681;28;20571;-74
2023/04/09 07:31:11;;;;;;;8.60;5.80;;;5.20;99.90;;;6.01;100.00;98895.88;4975151;28;20470;-74
2023/04/09 07:33:42;;;;;;;12.23;6.33;;;5.40;99.90;;;6.08;100.00;98902.16;4974074;28;20563;-74
2023/04/09 07:36:14;;;;;;;19.23;6.50;;;5.40;99.90;;;6.16;100.00;98901.50;4975974;28;20478;-74
2023/04/09 07:38:45;;;;;;;16.73;7.27;;;5.50;99.90;;;6.23;100.00;98899.97;4977291;28;20464;-72
2023/04/09 07:41:15;;;;;;;14.30;7.30;;;5.50;99.90;;;6.30;100.00;98898.47;4976885;28;20476;-74
2023/04/09 07:43:45;;;;;;;15.53;7.40;;;5.70;99.90;;;6.36;100.00;98904.88;4979605;28;20521;-74
2023/04/09 07:46:20;;;;;;;12.80;7.67;;;5.80;99.90;;;6.43;100.00;98909.38;4975245;28;20515;-74
2023/04/09 07:48:51;;;;;;;12.47;8.20;;;5.90;99.90;;;6.50;100.00;98905.25;4978986;28;20467;-74
2023/04/09 07:51:25;;;;;;;10.73;7.07;;;6.00;99.90;;;6.58;100.00;98901.97;4989983;28;20973;-74
2023/04/09 07:53:56;;;;;;;15.03;7.80;;;6.10;99.90;;;6.67;100.00;98889.91;4974887;28;20962;-74
2023/04/09 07:56:27;;;;;;;19.23;8.90;;;6.20;99.90;;;6.73;100.00;98894.56;4975378;28;20967;-74
2023/04/09 07:58:58;;;;;;;13.63;7.27;;;6.30;99.90;;;6.78;100.00;98902.72;4979501;28;20468;-74
2023/04/09 08:01:29;;;;;;;17.43;8.80;;;6.20;99.90;;;6.85;100.00;98896.00;4976952;28;20475;-74
2023/04/09 08:04:01;;;;;;;14.20;7.93;;;6.30;99.90;;;6.92;100.00;98891.88;4973357;28;20504;-74
2023/04/09 08:06:33;;;;;;;17.30;9.00;;;6.40;99.90;;;7.01;100.00;98896.22;4978964;28;20467;-74
2023/04/09 08:09:03;;;;;;;12.73;7.20;;;6.50;99.90;;;7.08;100.00;98889.47;4980299;28;20517;-75
2023/04/09 08:11:33;;;;;;;15.63;8.00;;;6.50;99.90;;;7.16;100.00;98893.94;4977440;28;20560;-72
2023/04/09 08:14:05;;;;;;;18.70;8.60;;;6.60;99.90;;;7.18;100.00;98887.66;4978917;28;20522;-75
2023/04/09 08:16:34;;;;;;;15.23;7.70;;;6.60;99.90;;;7.23;100.00;98898.44;4979241;28;20465;-74
2023/04/09 08:19:06;;;;;;;14.53;8.50;;;6.70;99.90;;;7.29;100.00;98894.44;4978118;28;20468;-74
2023/04/09 08:21:41;;;;;;;13.17;7.60;;;6.80;99.90;;;7.34;100.00;98898.25;4976781;28;20472;-74
2023/04/09 08:24:11;;;;;;;11.00;7.10;;;6.80;99.90;;;7.42;100.00;98905.31;4964209;28;20480;-75
2023/04/09 08:26:43;;;;;;;15.17;7.90;;;6.90;99.90;;;7.45;100.00;98900.66;4979062;28;20464;-75
2023/04/09 08:29:14;;;;;;;11.73;7.20;;;7.00;99.90;;;7.50;100.00;98902.78;4976088;28;20476;-74
2023/04/09 08:31:43;;;;;;;14.33;8.30;;;7.00;99.90;;;7.53;100.00;98900.72;4976000;28;20491;-74
2023/04/09 08:34:16;;;;;;;11.07;7.07;;;7.10;99.90;;;7.62;100.00;98903.41;4976085;28;20468;-75
2023/04/09 08:36:48;;;;;;;12.77;7.20;;;7.10;99.90;;;7.66;100.00;98897.78;4981914;28;20572;-75
2023/04/09 08:39:19;;;;;;;12.13;7.50;;;7.10;99.90;;;7.72;100.00;98905.00;4978080;28;20536;-75
2023/04/09 08:41:51;;;;;;;15.10;7.47;;;7.30;99.90;;;7.78;100.00;98906.16;4980665;28;20768;-75
2023/04/09 08:44:20;;;;;;;13.10;7.33;;;7.30;99.90;;;7.83;100.00;98909.16;4981544;28;20596;-76
2023/04/09 08:46:51;;;;;;;17.60;7.30;;;7.40;99.90;;;7.87;100.00;98910.50;4979007;28;20823;-75
2023/04/09 08:49:21;;;;;;;10.43;7.00;;;7.40;99.90;;;7.92;100.00;98910.88;4978982;28;20933;-75
2023/04/09 08:51:52;;;;;;;11.97;7.03;;;7.40;99.90;;;7.97;100.00;98903.44;4980098;28;20476;-76
2023/04/09 08:54:25;;;;;;;12.73;7.00;;;7.40;99.90;;;8.02;100.00;98909.00;4979151;28;20552;-73
2023/04/09 08:56:57;;;;;;;11.30;6.17;;;7.60;99.90;;;8.07;100.00;98907.59;4977732;28;20468;-75
2023/04/09 08:59:26;;;;;;;21.93;12.20;;;7.60;99.90;;;8.15;100.00;98901.66;4977600;28;21344;-73
2023/04/09 09:02:07;;;;;;;9.83;6.70;;;7.70;99.90;;;8.21;100.00;98898.44;4978448;28;20474;-75
2023/04/09 09:04:49;;;;;;;9.77;6.20;;;7.80;99.90;;;8.29;100.00;98901.13;4976219;28;20504;-75
2023/04/09 09:07:20;;;;;;;11.03;6.80;;;7.90;99.90;;;8.35;100.00;98895.31;4976751;28;20465;-75
2023/04/09 09:09:55;;;;;;;8.10;4.90;;;7.90;99.90;;;8.41;100.00;98894.69;4977166;28;21300;-75
2023/04/09 09:12:37;;;;;;;10.23;5.70;;;8.00;99.90;;;8.47;100.00;98894.09;4976514;28;20464;-75
2023/04/09 09:15:26;;;;;;;8.73;5.73;;;8.10;99.90;;;8.54;100.00;98889.91;4978641;28;20556;-75
2023/04/09 09:17:58;;;;;;;9.83;5.43;;;8.10;99.90;;;8.58;100.00;98880.81;4977672;28;20530;-75
2023/04/09 09:20:28;;;;;;;9.60;5.37;;;8.10;99.90;;;8.66;100.00;98876.59;4977698;28;20464;-75
2023/04/09 09:23:00;;;;;;;10.10;5.93;;;8.20;99.90;;;8.73;100.00;98873.25;4976954;28;20488;-75
2023/04/09 09:25:29;;;;;;;10.20;6.10;;;8.30;99.90;;;8.76;100.00;98872.94;4979361;28;21200;-75
2023/04/09 09:28:10;;;;;;;7.30;4.73;;;8.20;99.90;;;8.85;100.00;98866.75;4976226;28;21035;-75
2023/04/09 09:30:40;;;;;;;8.20;5.73;;;8.40;99.90;;;8.95;100.00;98864.06;4976271;28;20547;-75
2023/04/09 09:33:11;;;;;;;7.60;5.00;;;8.50;99.90;;;9.03;100.00;98867.50;4976608;28;20544;-75
2023/04/09 09:35:52;;;;;;;9.37;5.50;;;8.50;99.90;;;9.12;100.00;98857.94;4976226;28;20969;-75
2023/04/09 09:38:23;;;;;;;11.13;6.03;;;8.70;99.90;;;9.21;100.00;98862.19;4978437;28;20462;-75
2023/04/09 09:40:54;;;;;;;14.87;9.20;;;8.80;99.90;;;9.29;100.00;98857.00;4976983;28;20544;-75
2023/04/09 09:43:24;;;;;;;10.77;5.83;;;8.90;99.90;;;9.38;100.00;98853.44;4978181;28;21317;-75
2023/04/09 09:45:56;;;;;;;8.07;5.50;;;9.00;99.90;;;9.45;100.00;98851.81;4977710;28;20506;-75
2023/04/09 09:48:25;;;;;;;9.03;5.63;;;9.00;99.90;;;9.52;100.00;98844.16;4975203;28;20532;-75
2023/04/09 09:50:57;;;;;;;6.90;4.67;;;9.00;99.90;;;9.64;100.00;98848.13;4977856;28;20460;-76
2023/04/09 09:53:32;;;;;;;10.10;6.13;;;9.10;99.90;;;9.70;100.00;98850.06;4975101;28;20568;-75
2023/04/09 09:56:02;;;;;;;9.60;5.53;;;9.20;99.90;;;9.78;100.00;98838.81;4976384;28;20467;-75
2023/04/09 09:58:38;;;;;;;11.17;5.30;;;9.30;99.90;;;9.90;100.00;98837.50;4976001;28;20488;-75
2023/04/09 10:01:13;;;;;;;10.30;5.33;;;9.40;99.90;;;9.97;100.00;98835.88;4979381;28;20468;-75
2023/04/09 10:03:44;;;;;;;8.90;4.77;;;9.50;99.90;;;10.01;100.00;98837.19;4978417;28;20461;-75
2023/04/09 10:06:16;;;;;;;6.33;4.40;;;9.50;99.90;;;10.09;100.00;98826.75;4980873;28;21010;-75
2023/04/09 10:08:49;;;;;;;6.27;4.10;;;9.70;99.90;;;10.23;100.00;98833.94;4980911;28;20479;-75
2023/04/09 10:11:22;;;;;;;11.60;4.13;;;9.90;99.90;;;10.36;100.00;98823.78;4977125;28;20468;-75
2023/04/09 10:13:57;;;;;;;6.40;4.07;;;10.00;99.90;;;10.40;100.00;98825.09;4978661;28;20467;-75
2023/04/09 10:16:28;;;;;;;5.60;3.70;;;9.90;99.90;;;10.50;100.00;98830.97;4978270;28;20480;-75
2023/04/09 10:19:00;;;;;;;6.23;3.90;;;10.00;99.90;;;10.60;100.00;98836.81;4976959;28;20506;-75
2023/04/09 10:21:42;;;;;;;6.70;4.37;;;10.30;99.90;;;10.66;96.44;98834.50;4977387;28;20597;-75
2023/04/09 10:24:14;;;;;;;6.63;4.60;;;10.40;99.90;;;10.71;96.07;98830.41;4977973;28;20496;-75
2023/04/09 10:26:45;;;;;;;4.60;3.37;;;10.30;99.90;;;10.78;96.18;98822.69;4980067;28;20550;-75
2023/04/09 10:29:17;;;;;;;6.23;4.07;;;10.30;99.90;;;10.87;95.25;98826.91;4978240;28;20554;-75
2023/04/09 10:31:49;;;;;;;4.70;3.30;;;10.50;99.90;;;10.93;94.61;98821.03;4978666;28;20476;-75
2023/04/09 10:34:21;;;;;;;6.97;4.00;;;10.50;99.90;;;11.00;94.62;98812.28;4977610;28;20922;-75
2023/04/09 10:36:53;;;;;;;6.23;3.50;;;10.50;99.90;;;11.08;92.88;98822.72;4990077;28;20460;-75
2023/04/09 10:39:28;;;;;;;5.23;3.50;;;10.70;99.90;;;11.19;89.77;98820.72;4978441;28;20515;-75
2023/04/09 10:42:00;;;;;;;6.20;3.27;;;10.90;99.90;;;11.28;88.49;98822.31;4976941;28;20932;-75